sensor_id;sensor_type;location;lat;lon;timestamp;temperature;humidity
20081;DHT22;10200;49.232;9.222;2023-04-10T00:02:12;7.80;93.90
20081;DHT22;10200;49.232;9.222;2023-04-10T00:04:38;7.50;93.70
20081;DHT22;10200;49.232;9.222;2023-04-10T00:07:03;7.60;94.60
20081;DHT22;10200;49.232;9.222;2023-04-10T00:09:29;7.50;94.90
20081;DHT22;10200;49.232;9.222;2023-04-10T00:11:55;7.60;95.50
20081;DHT22;10200;49.232;9.222;2023-04-10T00:14:21;7.30;95.80
20081;DHT22;10200;49.232;9.222;2023-04-10T00:16:49;7.30;96.60
20081;DHT22;10200;49.232;9.222;2023-04-10T00:19:16;7.30;97.00
20081;DHT22;10200;49.232;9.222;2023-04-10T00:21:42;7.30;97.60
20081;DHT22;10200;49.232;9.222;2023-04-10T00:24:08;7.30;97.80
20081;DHT22;10200;49.232;9.222;2023-04-10T00:26:34;7.80;98.20
20081;DHT22;10200;49.232;9.222;2023-04-10T00:29:01;7.40;97.80
20081;DHT22;10200;49.232;9.222;2023-04-10T00:31:27;7.40;98.30
20081;DHT22;10200;49.232;9.222;2023-04-10T00:33:52;7.40;98.00
20081;DHT22;10200;49.232;9.222;2023-04-10T00:36:18;7.40;98.00
20081;DHT22;10200;49.232;9.222;2023-04-10T00:38:44;7.40;97.70
20081;DHT22;10200;49.232;9.222;2023-04-10T00:41:10;7.30;97.40
20081;DHT22;10200;49.232;9.222;2023-04-10T00:43:35;7.30;98.20
20081;DHT22;10200;49.232;9.222;2023-04-10T00:46:01;7.30;98.30
20081;DHT22;10200;49.232;9.222;2023-04-10T00:48:27;7.30;98.50
20081;DHT22;10200;49.232;9.222;2023-04-10T00:50:53;7.30;98.20
20081;DHT22;10200;49.232;9.222;2023-04-10T00:53:19;7.30;98.20
20081;DHT22;10200;49.232;9.222;2023-04-10T00:55:45;7.30;98.20
20081;DHT22;10200;49.232;9.222;2023-04-10T00:58:11;7.30;98.20
20081;DHT22;10200;49.232;9.222;2023-04-10T01:00:39;7.20;98.20
20081;DHT22;10200;49.232;9.222;2023-04-10T01:03:07;7.10;98.20
20081;DHT22;10200;49.232;9.222;2023-04-10T01:06:23;6.90;98.10
20081;DHT22;10200;49.232;9.222;2023-04-10T01:11:12;6.90;98.60
20081;DHT22;10200;49.232;9.222;2023-04-10T01:13:51;6.90;99.50
20081;DHT22;10200;49.232;9.222;2023-04-10T01:16:35;6.90;99.90
20081;DHT22;10200;49.232;9.222;2023-04-10T01:19:38;7.00;99.90
20081;DHT22;10200;49.232;9.222;2023-04-10T01:22:14;6.90;99.90
20081;DHT22;10200;49.232;9.222;2023-04-10T01:25:14;6.90;99.90
20081;DHT22;10200;49.232;9.222;2023-04-10T01:28:06;7.00;99.90
20081;DHT22;10200;49.232;9.222;2023-04-10T01:30:36;6.90;99.90
20081;DHT22;10200;49.232;9.222;2023-04-10T01:33:05;6.90;99.90
20081;DHT22;10200;49.232;9.222;2023-04-10T01:35:34;6.80;99.90
20081;DHT22;10200;49.232;9.222;2023-04-10T01:38:01;6.70;99.90
20081;DHT22;10200;49.232;9.222;2023-04-10T01:40:30;6.70;99.90
20081;DHT22;10200;49.232;9.222;2023-04-10T01:42:58;6.60;99.90
20081;DHT22;10200;49.232;9.222;2023-04-10T01:45:27;6.50;99.90
20081;DHT22;10200;49.232;9.222;2023-04-10T01:47:54;6.50;99.90
20081;DHT22;10200;49.232;9.222;2023-04-10T01:50:21;6.40;99.90
20081;DHT22;10200;49.232;9.222;2023-04-10T01:52:50;6.80;99.90
20081;DHT22;10200;49.232;9.222;2023-04-10T01:55:23;6.50;99.90
20081;DHT22;10200;49.232;9.222;2023-04-10T01:57:49;6.60;99.90
20081;DHT22;10200;49.232;9.222;2023-04-10T02:00:16;6.70;99.90
20081;DHT22;10200;49.232;9.222;2023-04-10T02:02:42;6.80;99.90
20081;DHT22;10200;49.232;9.222;2023-04-10T02:05:08;6.80;99.90
20081;DHT22;10200;49.232;9.222;2023-04-10T02:07:49;6.80;99.90
20081;DHT22;10200;49.232;9.222;2023-04-10T02:13:05;6.80;99.90
20081;DHT22;10200;49.232;9.222;2023-04-10T02:15:31;6.90;99.90
20081;DHT22;10200;49.232;9.222;2023-04-10T02:17:59;6.80;99.90
20081;DHT22;10200;49.232;9.222;2023-04-10T02:20:29;6.90;99.90
20081;DHT22;10200;49.232;9.222;2023-04-10T02:22:56;6.80;99.90
20081;DHT22;10200;49.232;9.222;2023-04-10T02:25:24;6.80;99.90
20081;DHT22;10200;49.232;9.222;2023-04-10T02:27:50;6.70;99.90
20081;DHT22;10200;49.232;9.222;2023-04-10T02:30:16;6.70;99.90
20081;DHT22;10200;49.232;9.222;2023-04-10T02:32:42;6.70;99.90
20081;DHT22;10200;49.232;9.222;2023-04-10T02:35:08;6.70;99.90
20081;DHT22;10200;49.232;9.222;2023-04-10T02:37:35;6.60;99.90
20081;DHT22;10200;49.232;9.222;2023-04-10T02:40:01;6.50;99.90
20081;DHT22;10200;49.232;9.222;2023-04-10T02:42:27;6.40;99.90
20081;DHT22;10200;49.232;9.222;2023-04-10T02:44:52;6.40;99.90
20081;DHT22;10200;49.232;9.222;2023-04-10T02:47:18;6.30;99.90
20081;DHT22;10200;49.232;9.222;2023-04-10T02:49:44;6.30;99.90
20081;DHT22;10200;49.232;9.222;2023-04-10T02:52:14;6.20;99.90
20081;DHT22;10200;49.232;9.222;2023-04-10T02:54:41;6.20;99.90
20081;DHT22;10200;49.232;9.222;2023-04-10T02:57:06;6.20;99.90
20081;DHT22;10200;49.232;9.222;2023-04-10T03:04:24;6.10;99.90
20081;DHT22;10200;49.232;9.222;2023-04-10T03:06:50;6.00;99.90
20081;DHT22;10200;49.232;9.222;2023-04-10T03:09:16;6.10;99.90
20081;DHT22;10200;49.232;9.222;2023-04-10T03:11:42;6.00;99.90
20081;DHT22;10200;49.232;9.222;2023-04-10T03:14:08;6.00;99.90
20081;DHT22;10200;49.232;9.222;2023-04-10T03:16:36;6.00;99.90
20081;DHT22;10200;49.232;9.222;2023-04-10T03:19:02;5.90;99.90
20081;DHT22;10200;49.232;9.222;2023-04-10T03:21:27;5.90;99.90
20081;DHT22;10200;49.232;9.222;2023-04-10T03:23:54;5.90;99.90
20081;DHT22;10200;49.232;9.222;2023-04-10T03:26:20;5.90;99.90
20081;DHT22;10200;49.232;9.222;2023-04-10T03:28:48;5.90;99.90
20081;DHT22;10200;49.232;9.222;2023-04-10T03:31:14;5.90;99.90
20081;DHT22;10200;49.232;9.222;2023-04-10T03:33:39;5.90;99.90
20081;DHT22;10200;49.232;9.222;2023-04-10T03:36:05;5.90;99.90
20081;DHT22;10200;49.232;9.222;2023-04-10T03:38:31;5.90;99.90
20081;DHT22;10200;49.232;9.222;2023-04-10T03:40:57;6.00;99.90
20081;DHT22;10200;49.232;9.222;2023-04-10T03:43:23;5.90;99.90
20081;DHT22;10200;49.232;9.222;2023-04-10T03:45:49;5.90;99.90
20081;DHT22;10200;49.232;9.222;2023-04-10T03:48:15;5.90;99.90
20081;DHT22;10200;49.232;9.222;2023-04-10T03:50:42;5.90;99.90
20081;DHT22;10200;49.232;9.222;2023-04-10T03:53:08;5.80;99.90
20081;DHT22;10200;49.232;9.222;2023-04-10T03:55:34;5.70;99.90
20081;DHT22;10200;49.232;9.222;2023-04-10T03:57:59;5.70;99.90
20081;DHT22;10200;49.232;9.222;2023-04-10T04:00:26;5.70;99.90
20081;DHT22;10200;49.232;9.222;2023-04-10T04:02:52;5.60;99.90
20081;DHT22;10200;49.232;9.222;2023-04-10T04:05:18;5.60;99.90
20081;DHT22;10200;49.232;9.222;2023-04-10T04:07:44;5.60;99.90
20081;DHT22;10200;49.232;9.222;2023-04-10T04:10:10;5.60;99.90
20081;DHT22;10200;49.232;9.222;2023-04-10T04:12:36;5.70;99.90
20081;DHT22;10200;49.232;9.222;2023-04-10T04:15:03;5.60;99.90
20081;DHT22;10200;49.232;9.222;2023-04-10T04:17:29;5.60;99.90
20081;DHT22;10200;49.232;9.222;2023-04-10T04:19:55;5.60;99.90
20081;DHT22;10200;49.232;9.222;2023-04-10T04:22:21;5.70;99.90
20081;DHT22;10200;49.232;9.222;2023-04-10T04:24:47;5.60;99.90
20081;DHT22;10200;49.232;9.222;2023-04-10T04:27:13;5.60;99.90
20081;DHT22;10200;49.232;9.222;2023-04-10T04:29:38;5.70;99.90
20081;DHT22;10200;49.232;9.222;2023-04-10T04:32:05;5.70;99.90
20081;DHT22;10200;49.232;9.222;2023-04-10T04:34:30;5.80;99.90
20081;DHT22;10200;49.232;9.222;2023-04-10T04:36:56;5.90;99.90
20081;DHT22;10200;49.232;9.222;2023-04-10T04:39:22;5.90;99.90
20081;DHT22;10200;49.232;9.222;2023-04-10T04:41:47;5.90;99.90
20081;DHT22;10200;49.232;9.222;2023-04-10T04:44:13;6.00;99.90
20081;DHT22;10200;49.232;9.222;2023-04-10T04:46:39;6.00;99.90
20081;DHT22;10200;49.232;9.222;2023-04-10T04:49:04;6.00;99.90
20081;DHT22;10200;49.232;9.222;2023-04-10T04:51:30;6.00;99.90
20081;DHT22;10200;49.232;9.222;2023-04-10T04:53:56;5.90;99.90
20081;DHT22;10200;49.232;9.222;2023-04-10T04:56:21;5.90;99.90
20081;DHT22;10200;49.232;9.222;2023-04-10T04:58:47;5.80;99.90
20081;DHT22;10200;49.232;9.222;2023-04-10T05:01:12;5.80;99.90
20081;DHT22;10200;49.232;9.222;2023-04-10T05:03:38;5.90;99.90
20081;DHT22;10200;49.232;9.222;2023-04-10T05:06:04;5.90;99.90
20081;DHT22;10200;49.232;9.222;2023-04-10T05:08:30;5.90;99.90
20081;DHT22;10200;49.232;9.222;2023-04-10T05:10:55;6.00;99.90
20081;DHT22;10200;49.232;9.222;2023-04-10T05:13:21;6.10;99.90
20081;DHT22;10200;49.232;9.222;2023-04-10T05:15:47;6.20;99.90
20081;DHT22;10200;49.232;9.222;2023-04-10T05:18:14;6.30;99.90
20081;DHT22;10200;49.232;9.222;2023-04-10T05:20:45;6.40;99.90
20081;DHT22;10200;49.232;9.222;2023-04-10T05:23:11;6.60;99.90
20081;DHT22;10200;49.232;9.222;2023-04-10T05:25:39;6.80;99.90
20081;DHT22;10200;49.232;9.222;2023-04-10T05:28:04;7.20;99.90
20081;DHT22;10200;49.232;9.222;2023-04-10T05:30:30;7.80;99.90
20081;DHT22;10200;49.232;9.222;2023-04-10T05:32:56;8.40;99.90
20081;DHT22;10200;49.232;9.222;2023-04-10T05:35:21;8.90;99.90
20081;DHT22;10200;49.232;9.222;2023-04-10T05:37:47;9.30;97.50
20081;DHT22;10200;49.232;9.222;2023-04-10T05:40:13;9.50;96.40
20081;DHT22;10200;49.232;9.222;2023-04-10T05:42:38;9.70;93.90
20081;DHT22;10200;49.232;9.222;2023-04-10T05:45:05;10.00;93.40
20081;DHT22;10200;49.232;9.222;2023-04-10T05:47:31;10.20;91.30
20081;DHT22;10200;49.232;9.222;2023-04-10T05:49:56;10.60;92.00
20081;DHT22;10200;49.232;9.222;2023-04-10T05:52:24;11.20;90.50
20081;DHT22;10200;49.232;9.222;2023-04-10T05:54:50;11.90;87.80
20081;DHT22;10200;49.232;9.222;2023-04-10T05:57:16;12.50;83.40
20081;DHT22;10200;49.232;9.222;2023-04-10T05:59:42;13.20;79.60
20081;DHT22;10200;49.232;9.222;2023-04-10T06:02:08;13.80;75.40
20081;DHT22;10200;49.232;9.222;2023-04-10T06:04:33;14.00;95.50
20081;DHT22;10200;49.232;9.222;2023-04-10T06:06:59;14.20;68.80
20081;DHT22;10200;49.232;9.222;2023-04-10T06:09:25;14.20;67.30
20081;DHT22;10200;49.232;9.222;2023-04-10T06:11:52;14.20;66.00
20081;DHT22;10200;49.232;9.222;2023-04-10T06:14:18;14.30;65.10
20081;DHT22;10200;49.232;9.222;2023-04-10T06:16:45;14.60;65.60
20081;DHT22;10200;49.232;9.222;2023-04-10T06:19:10;14.70;62.80
20081;DHT22;10200;49.232;9.222;2023-04-10T06:21:36;14.60;62.20
20081;DHT22;10200;49.232;9.222;2023-04-10T06:24:02;14.60;62.80
20081;DHT22;10200;49.232;9.222;2023-04-10T06:26:28;14.40;61.20
20081;DHT22;10200;49.232;9.222;2023-04-10T06:28:53;14.20;63.20
20081;DHT22;10200;49.232;9.222;2023-04-10T06:31:20;14.20;63.30
20081;DHT22;10200;49.232;9.222;2023-04-10T06:33:48;14.20;63.30
20081;DHT22;10200;49.232;9.222;2023-04-10T06:36:13;14.20;63.80
20081;DHT22;10200;49.232;9.222;2023-04-10T06:38:39;14.20;64.00
20081;DHT22;10200;49.232;9.222;2023-04-10T06:41:05;14.50;63.80
20081;DHT22;10200;49.232;9.222;2023-04-10T06:43:35;14.90;63.50
20081;DHT22;10200;49.232;9.222;2023-04-10T06:46:03;15.40;63.40
20081;DHT22;10200;49.232;9.222;2023-04-10T06:48:30;15.80;61.10
20081;DHT22;10200;49.232;9.222;2023-04-10T06:50:55;15.90;58.60
20081;DHT22;10200;49.232;9.222;2023-04-10T06:53:21;15.90;58.90
20081;DHT22;10200;49.232;9.222;2023-04-10T06:55:47;15.80;59.10
20081;DHT22;10200;49.232;9.222;2023-04-10T06:58:12;15.90;58.70
20081;DHT22;10200;49.232;9.222;2023-04-10T07:00:38;15.80;59.50
20081;DHT22;10200;49.232;9.222;2023-04-10T07:03:04;16.10;59.10
20081;DHT22;10200;49.232;9.222;2023-04-10T07:05:29;16.20;58.80
20081;DHT22;10200;49.232;9.222;2023-04-10T07:07:55;16.60;58.70
20081;DHT22;10200;49.232;9.222;2023-04-10T07:10:21;17.00;58.20
20081;DHT22;10200;49.232;9.222;2023-04-10T07:12:46;17.20;56.60
20081;DHT22;10200;49.232;9.222;2023-04-10T07:15:12;17.40;56.70
20081;DHT22;10200;49.232;9.222;2023-04-10T07:17:40;17.40;54.80
20081;DHT22;10200;49.232;9.222;2023-04-10T07:20:06;17.50;55.70
20081;DHT22;10200;49.232;9.222;2023-04-10T07:22:32;17.50;54.80
20081;DHT22;10200;49.232;9.222;2023-04-10T07:24:57;17.20;54.60
20081;DHT22;10200;49.232;9.222;2023-04-10T07:27:23;17.20;55.30
20081;DHT22;10200;49.232;9.222;2023-04-10T07:29:52;17.20;54.60
20081;DHT22;10200;49.232;9.222;2023-04-10T07:32:18;17.00;54.90
20081;DHT22;10200;49.232;9.222;2023-04-10T07:34:44;17.20;55.90
20081;DHT22;10200;49.232;9.222;2023-04-10T07:37:09;17.20;54.40
20081;DHT22;10200;49.232;9.222;2023-04-10T07:39:35;17.30;54.60
20081;DHT22;10200;49.232;9.222;2023-04-10T07:42:01;17.50;54.80
20081;DHT22;10200;49.232;9.222;2023-04-10T07:44:26;17.50;54.80
20081;DHT22;10200;49.232;9.222;2023-04-10T07:46:54;17.60;53.80
20081;DHT22;10200;49.232;9.222;2023-04-10T07:49:21;17.80;54.50
20081;DHT22;10200;49.232;9.222;2023-04-10T07:51:47;18.10;55.10
20081;DHT22;10200;49.232;9.222;2023-04-10T07:54:12;18.70;52.90
20081;DHT22;10200;49.232;9.222;2023-04-10T07:56:38;18.90;51.70
20081;DHT22;10200;49.232;9.222;2023-04-10T07:59:04;18.90;51.90
20081;DHT22;10200;49.232;9.222;2023-04-10T08:01:30;19.00;50.80
20081;DHT22;10200;49.232;9.222;2023-04-10T08:03:56;18.80;51.40
20081;DHT22;10200;49.232;9.222;2023-04-10T08:06:22;19.00;51.10
20081;DHT22;10200;49.232;9.222;2023-04-10T08:08:47;19.10;50.80
20081;DHT22;10200;49.232;9.222;2023-04-10T08:11:26;19.00;49.30
20081;DHT22;10200;49.232;9.222;2023-04-10T08:13:53;18.80;50.10
20081;DHT22;10200;49.232;9.222;2023-04-10T08:16:23;18.80;51.60
20081;DHT22;10200;49.232;9.222;2023-04-10T08:18:49;18.80;50.00
20081;DHT22;10200;49.232;9.222;2023-04-10T08:21:15;18.90;51.10
20081;DHT22;10200;49.232;9.222;2023-04-10T08:23:41;19.20;51.00
20081;DHT22;10200;49.232;9.222;2023-04-10T08:26:07;19.10;48.70
20081;DHT22;10200;49.232;9.222;2023-04-10T08:28:33;19.10;49.70
20081;DHT22;10200;49.232;9.222;2023-04-10T08:30:58;19.20;49.40
20081;DHT22;10200;49.232;9.222;2023-04-10T08:33:24;19.30;49.20
20081;DHT22;10200;49.232;9.222;2023-04-10T08:35:50;19.30;48.50
20081;DHT22;10200;49.232;9.222;2023-04-10T08:38:17;19.40;48.70
20081;DHT22;10200;49.232;9.222;2023-04-10T08:40:42;19.50;48.00
20081;DHT22;10200;49.232;9.222;2023-04-10T08:43:08;19.60;48.10
20081;DHT22;10200;49.232;9.222;2023-04-10T08:45:34;19.70;47.60
20081;DHT22;10200;49.232;9.222;2023-04-10T08:48:02;19.80;47.00
20081;DHT22;10200;49.232;9.222;2023-04-10T08:50:30;19.90;46.60
20081;DHT22;10200;49.232;9.222;2023-04-10T08:52:59;19.90;46.00
20081;DHT22;10200;49.232;9.222;2023-04-10T08:55:29;20.00;46.00
20081;DHT22;10200;49.232;9.222;2023-04-10T08:57:55;20.00;45.80
20081;DHT22;10200;49.232;9.222;2023-04-10T09:00:21;20.10;45.80
20081;DHT22;10200;49.232;9.222;2023-04-10T09:02:47;20.00;45.60
20081;DHT22;10200;49.232;9.222;2023-04-10T09:05:13;20.00;45.10
20081;DHT22;10200;49.232;9.222;2023-04-10T09:07:39;20.00;44.70
20081;DHT22;10200;49.232;9.222;2023-04-10T09:10:07;20.20;45.00
20081;DHT22;10200;49.232;9.222;2023-04-10T09:12:43;20.30;45.00
20081;DHT22;10200;49.232;9.222;2023-04-10T09:15:10;20.40;45.00
20081;DHT22;10200;49.232;9.222;2023-04-10T09:17:36;20.60;44.90
20081;DHT22;10200;49.232;9.222;2023-04-10T09:20:01;20.70;44.40
20081;DHT22;10200;49.232;9.222;2023-04-10T09:22:32;21.00;42.70
20081;DHT22;10200;49.232;9.222;2023-04-10T09:24:59;21.00;41.20
20081;DHT22;10200;49.232;9.222;2023-04-10T09:29:52;21.60;40.40
20081;DHT22;10200;49.232;9.222;2023-04-10T09:32:40;21.70;39.80
20081;DHT22;10200;49.232;9.222;2023-04-10T09:35:12;21.40;38.80
20081;DHT22;10200;49.232;9.222;2023-04-10T09:37:40;21.40;39.30
20081;DHT22;10200;49.232;9.222;2023-04-10T09:40:22;21.40;39.90
20081;DHT22;10200;49.232;9.222;2023-04-10T09:42:52;21.70;41.00
20081;DHT22;10200;49.232;9.222;2023-04-10T09:45:21;21.60;39.20
20081;DHT22;10200;49.232;9.222;2023-04-10T09:48:06;21.50;38.80
20081;DHT22;10200;49.232;9.222;2023-04-10T09:50:39;21.40;38.90
20081;DHT22;10200;49.232;9.222;2023-04-10T09:53:06;21.30;38.70
20081;DHT22;10200;49.232;9.222;2023-04-10T09:55:34;21.30;39.50
20081;DHT22;10200;49.232;9.222;2023-04-10T09:58:03;21.40;39.50
20081;DHT22;10200;49.232;9.222;2023-04-10T10:00:29;21.60;39.50
20081;DHT22;10200;49.232;9.222;2023-04-10T10:02:56;21.50;38.70
20081;DHT22;10200;49.232;9.222;2023-04-10T10:05:25;21.50;38.50
20081;DHT22;10200;49.232;9.222;2023-04-10T10:07:55;21.50;39.40
20081;DHT22;10200;49.232;9.222;2023-04-10T10:10:21;21.70;39.20
20081;DHT22;10200;49.232;9.222;2023-04-10T10:12:54;21.90;38.70
20081;DHT22;10200;49.232;9.222;2023-04-10T10:18:08;22.00;36.40
20081;DHT22;10200;49.232;9.222;2023-04-10T10:20:38;21.60;37.10
20081;DHT22;10200;49.232;9.222;2023-04-10T10:23:07;21.50;37.10
20081;DHT22;10200;49.232;9.222;2023-04-10T10:25:37;21.60;38.00
20081;DHT22;10200;49.232;9.222;2023-04-10T10:28:04;21.80;38.20
20081;DHT22;10200;49.232;9.222;2023-04-10T10:30:33;21.60;36.60
20081;DHT22;10200;49.232;9.222;2023-04-10T10:33:04;21.60;37.50
20081;DHT22;10200;49.232;9.222;2023-04-10T10:35:31;21.50;38.20
20081;DHT22;10200;49.232;9.222;2023-04-10T10:38:03;21.40;38.20
20081;DHT22;10200;49.232;9.222;2023-04-10T10:40:40;21.10;37.50
20081;DHT22;10200;49.232;9.222;2023-04-10T10:49:09;20.60;38.20
20081;DHT22;10200;49.232;9.222;2023-04-10T10:51:49;20.50;38.30
20081;DHT22;10200;49.232;9.222;2023-04-10T10:54:34;20.40;38.30
20081;DHT22;10200;49.232;9.222;2023-04-10T10:57:01;20.50;39.10
20081;DHT22;10200;49.232;9.222;2023-04-10T11:02:16;20.90;37.60
20081;DHT22;10200;49.232;9.222;2023-04-10T11:04:43;20.90;37.10
20081;DHT22;10200;49.232;9.222;2023-04-10T11:07:11;21.00;36.60
20081;DHT22;10200;49.232;9.222;2023-04-10T11:12:10;21.10;36.60
20081;DHT22;10200;49.232;9.222;2023-04-10T11:14:36;21.20;37.00
20081;DHT22;10200;49.232;9.222;2023-04-10T11:17:02;21.40;36.40
20081;DHT22;10200;49.232;9.222;2023-04-10T11:19:28;21.50;36.60
20081;DHT22;10200;49.232;9.222;2023-04-10T11:22:05;21.50;34.90
20081;DHT22;10200;49.232;9.222;2023-04-10T11:24:57;21.30;34.10
20081;DHT22;10200;49.232;9.222;2023-04-10T11:27:43;21.30;35.40
20081;DHT22;10200;49.232;9.222;2023-04-10T11:30:32;21.30;34.80
20081;DHT22;10200;49.232;9.222;2023-04-10T11:32:59;21.40;35.90
20081;DHT22;10200;49.232;9.222;2023-04-10T11:35:26;21.60;35.70
20081;DHT22;10200;49.232;9.222;2023-04-10T11:38:07;21.50;34.70
20081;DHT22;10200;49.232;9.222;2023-04-10T11:40:33;21.30;34.60
20081;DHT22;10200;49.232;9.222;2023-04-10T11:43:13;21.30;35.20
20081;DHT22;10200;49.232;9.222;2023-04-10T11:45:39;21.20;34.90
20081;DHT22;10200;49.232;9.222;2023-04-10T11:48:04;21.10;34.50
20081;DHT22;10200;49.232;9.222;2023-04-10T11:50:32;21.20;35.30
20081;DHT22;10200;49.232;9.222;2023-04-10T11:53:00;21.20;34.60
20081;DHT22;10200;49.232;9.222;2023-04-10T11:55:41;21.10;34.20
20081;DHT22;10200;49.232;9.222;2023-04-10T11:58:27;21.00;33.90
20081;DHT22;10200;49.232;9.222;2023-04-10T12:00:56;21.00;34.30
20081;DHT22;10200;49.232;9.222;2023-04-10T12:03:39;21.00;35.00
20081;DHT22;10200;49.232;9.222;2023-04-10T12:06:10;21.10;35.40
20081;DHT22;10200;49.232;9.222;2023-04-10T12:08:43;21.10;35.90
20081;DHT22;10200;49.232;9.222;2023-04-10T12:11:19;21.20;34.30
20081;DHT22;10200;49.232;9.222;2023-04-10T12:13:47;21.00;33.10
20081;DHT22;10200;49.232;9.222;2023-04-10T12:16:16;20.90;33.90
20081;DHT22;10200;49.232;9.222;2023-04-10T12:18:42;20.90;34.30
20081;DHT22;10200;49.232;9.222;2023-04-10T12:21:09;20.90;33.60
20081;DHT22;10200;49.232;9.222;2023-04-10T12:23:37;20.90;33.70
20081;DHT22;10200;49.232;9.222;2023-04-10T12:28:32;21.00;32.50
20081;DHT22;10200;49.232;9.222;2023-04-10T12:30:58;21.10;32.60
20081;DHT22;10200;49.232;9.222;2023-04-10T12:33:24;21.10;33.30
20081;DHT22;10200;49.232;9.222;2023-04-10T12:35:50;21.10;33.40
20081;DHT22;10200;49.232;9.222;2023-04-10T12:41:04;20.90;31.50
20081;DHT22;10200;49.232;9.222;2023-04-10T12:43:36;20.90;33.10
20081;DHT22;10200;49.232;9.222;2023-04-10T12:46:02;20.70;33.60
20081;DHT22;10200;49.232;9.222;2023-04-10T12:48:28;20.60;32.30
20081;DHT22;10200;49.232;9.222;2023-04-10T12:50:54;20.50;32.70
20081;DHT22;10200;49.232;9.222;2023-04-10T12:53:20;20.50;33.50
20081;DHT22;10200;49.232;9.222;2023-04-10T12:56:03;20.50;33.30
20081;DHT22;10200;49.232;9.222;2023-04-10T12:58:31;20.40;33.50
20081;DHT22;10200;49.232;9.222;2023-04-10T13:01:06;20.30;32.30
20081;DHT22;10200;49.232;9.222;2023-04-10T13:03:35;20.30;32.60
20081;DHT22;10200;49.232;9.222;2023-04-10T13:06:02;20.30;32.10
20081;DHT22;10200;49.232;9.222;2023-04-10T13:08:29;20.30;32.60
20081;DHT22;10200;49.232;9.222;2023-04-10T13:10:57;20.40;33.20
20081;DHT22;10200;49.232;9.222;2023-04-10T13:13:27;20.50;32.90
20081;DHT22;10200;49.232;9.222;2023-04-10T13:15:54;20.60;32.90
20081;DHT22;10200;49.232;9.222;2023-04-10T13:18:20;20.70;33.00
20081;DHT22;10200;49.232;9.222;2023-04-10T13:20:45;20.90;33.20
20081;DHT22;10200;49.232;9.222;2023-04-10T13:23:11;20.90;32.90
20081;DHT22;10200;49.232;9.222;2023-04-10T13:25:38;21.00;32.70
20081;DHT22;10200;49.232;9.222;2023-04-10T13:28:05;20.90;31.00
20081;DHT22;10200;49.232;9.222;2023-04-10T13:30:39;20.60;30.70
20081;DHT22;10200;49.232;9.222;2023-04-10T13:33:07;20.60;31.40
20081;DHT22;10200;49.232;9.222;2023-04-10T13:35:34;20.60;32.50
20081;DHT22;10200;49.232;9.222;2023-04-10T13:38:00;20.70;33.10
20081;DHT22;10200;49.232;9.222;2023-04-10T13:40:25;20.70;33.00
20081;DHT22;10200;49.232;9.222;2023-04-10T13:42:51;20.70;33.00
20081;DHT22;10200;49.232;9.222;2023-04-10T13:45:17;20.80;33.10
20081;DHT22;10200;49.232;9.222;2023-04-10T13:47:42;20.80;33.50
20081;DHT22;10200;49.232;9.222;2023-04-10T13:50:09;20.90;34.40
20081;DHT22;10200;49.232;9.222;2023-04-10T13:52:35;20.90;34.20
20081;DHT22;10200;49.232;9.222;2023-04-10T13:55:02;21.00;34.20
20081;DHT22;10200;49.232;9.222;2023-04-10T13:57:28;20.70;33.80
20081;DHT22;10200;49.232;9.222;2023-04-10T13:59:54;20.70;34.70
20081;DHT22;10200;49.232;9.222;2023-04-10T14:02:19;20.60;34.50
20081;DHT22;10200;49.232;9.222;2023-04-10T14:04:45;20.70;35.10
20081;DHT22;10200;49.232;9.222;2023-04-10T14:07:12;20.70;35.30
20081;DHT22;10200;49.232;9.222;2023-04-10T14:09:38;20.70;35.00
20081;DHT22;10200;49.232;9.222;2023-04-10T14:12:04;20.70;35.40
20081;DHT22;10200;49.232;9.222;2023-04-10T14:14:29;20.70;35.20
20081;DHT22;10200;49.232;9.222;2023-04-10T14:16:55;20.70;35.40
20081;DHT22;10200;49.232;9.222;2023-04-10T14:19:21;20.60;35.00
20081;DHT22;10200;49.232;9.222;2023-04-10T14:21:48;20.60;35.20
20081;DHT22;10200;49.232;9.222;2023-04-10T14:24:17;20.60;35.50
20081;DHT22;10200;49.232;9.222;2023-04-10T14:26:42;20.70;35.70
20081;DHT22;10200;49.232;9.222;2023-04-10T14:29:08;20.60;35.40
20081;DHT22;10200;49.232;9.222;2023-04-10T14:31:34;20.50;35.00
20081;DHT22;10200;49.232;9.222;2023-04-10T14:34:00;20.50;35.10
20081;DHT22;10200;49.232;9.222;2023-04-10T14:36:25;20.50;35.90
20081;DHT22;10200;49.232;9.222;2023-04-10T14:38:52;20.50;35.70
20081;DHT22;10200;49.232;9.222;2023-04-10T14:41:17;20.60;36.00
20081;DHT22;10200;49.232;9.222;2023-04-10T14:43:43;20.60;34.80
20081;DHT22;10200;49.232;9.222;2023-04-10T14:46:10;20.50;35.50
20081;DHT22;10200;49.232;9.222;2023-04-10T14:48:35;20.50;34.70
20081;DHT22;10200;49.232;9.222;2023-04-10T14:51:01;20.50;34.30
20081;DHT22;10200;49.232;9.222;2023-04-10T14:53:28;20.50;34.80
20081;DHT22;10200;49.232;9.222;2023-04-10T14:55:54;20.50;34.80
20081;DHT22;10200;49.232;9.222;2023-04-10T14:58:20;20.30;33.90
20081;DHT22;10200;49.232;9.222;2023-04-10T15:00:45;20.30;34.90
20081;DHT22;10200;49.232;9.222;2023-04-10T15:03:11;20.30;34.80
20081;DHT22;10200;49.232;9.222;2023-04-10T15:05:37;20.40;34.70
20081;DHT22;10200;49.232;9.222;2023-04-10T15:08:02;20.50;34.50
20081;DHT22;10200;49.232;9.222;2023-04-10T15:10:29;20.50;35.20
20081;DHT22;10200;49.232;9.222;2023-04-10T15:12:57;20.70;35.50
20081;DHT22;10200;49.232;9.222;2023-04-10T15:15:22;20.70;34.60
20081;DHT22;10200;49.232;9.222;2023-04-10T15:17:50;20.70;34.60
20081;DHT22;10200;49.232;9.222;2023-04-10T15:20:15;20.80;34.70
20081;DHT22;10200;49.232;9.222;2023-04-10T15:22:41;20.80;34.50
20081;DHT22;10200;49.232;9.222;2023-04-10T15:25:08;20.70;34.40
20081;DHT22;10200;49.232;9.222;2023-04-10T15:27:36;20.70;35.00
20081;DHT22;10200;49.232;9.222;2023-04-10T15:30:03;20.70;34.40
20081;DHT22;10200;49.232;9.222;2023-04-10T15:32:29;20.60;34.40
20081;DHT22;10200;49.232;9.222;2023-04-10T15:34:55;20.50;34.70
20081;DHT22;10200;49.232;9.222;2023-04-10T15:37:21;20.30;34.30
20081;DHT22;10200;49.232;9.222;2023-04-10T15:39:48;20.20;34.70
20081;DHT22;10200;49.232;9.222;2023-04-10T15:42:13;20.10;34.80
20081;DHT22;10200;49.232;9.222;2023-04-10T15:44:44;20.00;34.80
20081;DHT22;10200;49.232;9.222;2023-04-10T15:47:09;19.90;35.20
20081;DHT22;10200;49.232;9.222;2023-04-10T15:49:35;19.90;35.80
20081;DHT22;10200;49.232;9.222;2023-04-10T15:52:01;19.80;35.80
20081;DHT22;10200;49.232;9.222;2023-04-10T15:54:28;19.80;36.60
20081;DHT22;10200;49.232;9.222;2023-04-10T15:56:53;19.70;36.70
20081;DHT22;10200;49.232;9.222;2023-04-10T15:59:19;19.70;36.80
20081;DHT22;10200;49.232;9.222;2023-04-10T16:01:46;19.60;37.20
20081;DHT22;10200;49.232;9.222;2023-04-10T16:04:12;19.60;37.20
20081;DHT22;10200;49.232;9.222;2023-04-10T16:06:38;19.50;37.30
20081;DHT22;10200;49.232;9.222;2023-04-10T16:09:03;19.40;37.60
20081;DHT22;10200;49.232;9.222;2023-04-10T16:11:29;19.50;37.90